sensor_id;sensor_type;location;lat;lon;timestamp;P1;durP1;ratioP1;P2;durP2;ratioP2
11008;SDS011;5557;51.670;7.788;2023-05-07T00:02:00;9.73;;;8.63;;
11008;SDS011;5557;51.670;7.788;2023-05-07T00:04:27;9.70;;;8.87;;
11008;SDS011;5557;51.670;7.788;2023-05-07T00:06:55;14.00;;;12.77;;
11008;SDS011;5557;51.670;7.788;2023-05-07T00:09:22;95.60;;;73.27;;
11008;SDS011;5557;51.670;7.788;2023-05-07T00:11:49;114.87;;;90.27;;
11008;SDS011;5557;51.670;7.788;2023-05-07T00:14:16;66.77;;;52.37;;
11008;SDS011;5557;51.670;7.788;2023-05-07T00:16:43;22.67;;;20.20;;
11008;SDS011;5557;51.670;7.788;2023-05-07T00:19:10;18.83;;;17.03;;
11008;SDS011;5557;51.670;7.788;2023-05-07T00:21:37;12.20;;;10.90;;
11008;SDS011;5557;51.670;7.788;2023-05-07T00:24:04;10.70;;;9.57;;
11008;SDS011;5557;51.670;7.788;2023-05-07T00:26:31;9.90;;;9.03;;
11008;SDS011;5557;51.670;7.788;2023-05-07T00:28:58;10.77;;;9.57;;
11008;SDS011;5557;51.670;7.788;2023-05-07T00:31:25;10.90;;;9.70;;
11008;SDS011;5557;51.670;7.788;2023-05-07T00:33:52;22.87;;;20.57;;
11008;SDS011;5557;51.670;7.788;2023-05-07T00:36:19;54.13;;;43.00;;
11008;SDS011;5557;51.670;7.788;2023-05-07T00:38:46;59.93;;;47.10;;
11008;SDS011;5557;51.670;7.788;2023-05-07T00:41:13;95.60;;;68.70;;
11008;SDS011;5557;51.670;7.788;2023-05-07T00:43:40;81.87;;;56.20;;
11008;SDS011;5557;51.670;7.788;2023-05-07T00:46:07;54.10;;;42.13;;
11008;SDS011;5557;51.670;7.788;2023-05-07T00:48:34;40.67;;;31.10;;
11008;SDS011;5557;51.670;7.788;2023-05-07T00:51:01;24.90;;;21.53;;
11008;SDS011;5557;51.670;7.788;2023-05-07T00:53:28;21.30;;;18.33;;
11008;SDS011;5557;51.670;7.788;2023-05-07T00:55:56;26.57;;;20.53;;
11008;SDS011;5557;51.670;7.788;2023-05-07T00:58:24;16.30;;;14.60;;
11008;SDS011;5557;51.670;7.788;2023-05-07T01:00:51;16.40;;;13.83;;
11008;SDS011;5557;51.670;7.788;2023-05-07T01:03:18;12.77;;;11.57;;
11008;SDS011;5557;51.670;7.788;2023-05-07T01:05:45;13.93;;;12.70;;
11008;SDS011;5557;51.670;7.788;2023-05-07T01:08:14;11.27;;;10.20;;
11008;SDS011;5557;51.670;7.788;2023-05-07T01:10:43;10.17;;;9.40;;
11008;SDS011;5557;51.670;7.788;2023-05-07T01:13:11;9.90;;;9.00;;
11008;SDS011;5557;51.670;7.788;2023-05-07T01:15:40;10.50;;;9.30;;
11008;SDS011;5557;51.670;7.788;2023-05-07T01:18:07;10.50;;;8.80;;
11008;SDS011;5557;51.670;7.788;2023-05-07T01:20:34;9.90;;;9.03;;
11008;SDS011;5557;51.670;7.788;2023-05-07T01:23:01;8.80;;;8.07;;
11008;SDS011;5557;51.670;7.788;2023-05-07T01:25:29;10.53;;;8.47;;
11008;SDS011;5557;51.670;7.788;2023-05-07T01:27:57;9.20;;;8.50;;
11008;SDS011;5557;51.670;7.788;2023-05-07T01:30:26;11.77;;;8.87;;
11008;SDS011;5557;51.670;7.788;2023-05-07T01:32:58;9.43;;;8.20;;
11008;SDS011;5557;51.670;7.788;2023-05-07T01:35:32;9.70;;;8.70;;
11008;SDS011;5557;51.670;7.788;2023-05-07T01:38:05;9.10;;;8.40;;
11008;SDS011;5557;51.670;7.788;2023-05-07T01:40:34;9.90;;;9.00;;
11008;SDS011;5557;51.670;7.788;2023-05-07T01:43:01;8.80;;;8.00;;
11008;SDS011;5557;51.670;7.788;2023-05-07T01:45:30;9.33;;;8.33;;
11008;SDS011;5557;51.670;7.788;2023-05-07T01:47:58;9.07;;;8.17;;
11008;SDS011;5557;51.670;7.788;2023-05-07T01:50:25;9.10;;;8.30;;
11008;SDS011;5557;51.670;7.788;2023-05-07T01:52:53;9.27;;;8.47;;
11008;SDS011;5557;51.670;7.788;2023-05-07T01:55:21;8.43;;;7.73;;
11008;SDS011;5557;51.670;7.788;2023-05-07T01:57:48;9.17;;;8.07;;
11008;SDS011;5557;51.670;7.788;2023-05-07T02:00:15;9.20;;;8.40;;
11008;SDS011;5557;51.670;7.788;2023-05-07T02:02:42;9.00;;;8.07;;
11008;SDS011;5557;51.670;7.788;2023-05-07T02:05:09;9.60;;;8.47;;
11008;SDS011;5557;51.670;7.788;2023-05-07T02:07:36;7.93;;;7.23;;
11008;SDS011;5557;51.670;7.788;2023-05-07T02:10:03;9.40;;;8.43;;
11008;SDS011;5557;51.670;7.788;2023-05-07T02:12:31;9.87;;;8.90;;
11008;SDS011;5557;51.670;7.788;2023-05-07T02:14:58;8.67;;;7.93;;
11008;SDS011;5557;51.670;7.788;2023-05-07T02:17:25;9.07;;;8.30;;
11008;SDS011;5557;51.670;7.788;2023-05-07T02:19:52;7.90;;;7.33;;
11008;SDS011;5557;51.670;7.788;2023-05-07T02:22:19;8.90;;;8.10;;
11008;SDS011;5557;51.670;7.788;2023-05-07T02:24:46;8.77;;;8.13;;
11008;SDS011;5557;51.670;7.788;2023-05-07T02:27:13;8.90;;;8.20;;
11008;SDS011;5557;51.670;7.788;2023-05-07T02:29:40;8.97;;;8.23;;
11008;SDS011;5557;51.670;7.788;2023-05-07T02:32:07;8.30;;;7.40;;
11008;SDS011;5557;51.670;7.788;2023-05-07T02:34:34;9.03;;;8.23;;
11008;SDS011;5557;51.670;7.788;2023-05-07T02:37:01;9.20;;;8.60;;
11008;SDS011;5557;51.670;7.788;2023-05-07T02:39:28;9.07;;;8.30;;
11008;SDS011;5557;51.670;7.788;2023-05-07T02:41:55;8.40;;;7.80;;
11008;SDS011;5557;51.670;7.788;2023-05-07T02:44:22;10.90;;;9.33;;
11008;SDS011;5557;51.670;7.788;2023-05-07T02:46:49;8.80;;;8.00;;
11008;SDS011;5557;51.670;7.788;2023-05-07T02:49:16;9.43;;;8.50;;
11008;SDS011;5557;51.670;7.788;2023-05-07T02:51:42;9.03;;;8.33;;
11008;SDS011;5557;51.670;7.788;2023-05-07T02:54:09;9.17;;;8.27;;
11008;SDS011;5557;51.670;7.788;2023-05-07T02:56:36;9.30;;;8.40;;
11008;SDS011;5557;51.670;7.788;2023-05-07T02:59:03;11.23;;;8.50;;
11008;SDS011;5557;51.670;7.788;2023-05-07T03:01:30;9.10;;;8.30;;
11008;SDS011;5557;51.670;7.788;2023-05-07T03:03:57;10.13;;;8.70;;
11008;SDS011;5557;51.670;7.788;2023-05-07T03:06:24;14.00;;;8.83;;
11008;SDS011;5557;51.670;7.788;2023-05-07T03:08:52;9.47;;;8.77;;
11008;SDS011;5557;51.670;7.788;2023-05-07T03:11:19;10.23;;;9.37;;
11008;SDS011;5557;51.670;7.788;2023-05-07T03:13:46;9.97;;;9.27;;
11008;SDS011;5557;51.670;7.788;2023-05-07T03:16:15;10.60;;;9.50;;
11008;SDS011;5557;51.670;7.788;2023-05-07T03:18:42;11.27;;;10.07;;
11008;SDS011;5557;51.670;7.788;2023-05-07T03:21:09;12.30;;;9.87;;
11008;SDS011;5557;51.670;7.788;2023-05-07T03:23:36;13.10;;;8.83;;
11008;SDS011;5557;51.670;7.788;2023-05-07T03:26:03;11.27;;;9.97;;
11008;SDS011;5557;51.670;7.788;2023-05-07T03:28:30;13.23;;;9.80;;
11008;SDS011;5557;51.670;7.788;2023-05-07T03:30:56;12.43;;;10.23;;
11008;SDS011;5557;51.670;7.788;2023-05-07T03:33:23;12.13;;;10.50;;
11008;SDS011;5557;51.670;7.788;2023-05-07T03:35:50;10.73;;;9.83;;
11008;SDS011;5557;51.670;7.788;2023-05-07T03:38:17;9.73;;;8.83;;
11008;SDS011;5557;51.670;7.788;2023-05-07T03:40:44;11.40;;;10.43;;
11008;SDS011;5557;51.670;7.788;2023-05-07T03:43:11;11.00;;;10.00;;
11008;SDS011;5557;51.670;7.788;2023-05-07T03:45:38;15.70;;;12.07;;
11008;SDS011;5557;51.670;7.788;2023-05-07T03:48:05;16.23;;;10.27;;
11008;SDS011;5557;51.670;7.788;2023-05-07T03:50:32;12.63;;;10.03;;
11008;SDS011;5557;51.670;7.788;2023-05-07T03:52:59;11.50;;;10.50;;
11008;SDS011;5557;51.670;7.788;2023-05-07T03:55:26;11.30;;;10.30;;
11008;SDS011;5557;51.670;7.788;2023-05-07T03:57:53;13.93;;;11.23;;
11008;SDS011;5557;51.670;7.788;2023-05-07T04:00:20;14.33;;;12.83;;
11008;SDS011;5557;51.670;7.788;2023-05-07T04:02:48;15.47;;;12.70;;
11008;SDS011;5557;51.670;7.788;2023-05-07T04:05:15;14.30;;;12.80;;
11008;SDS011;5557;51.670;7.788;2023-05-07T04:07:59;16.13;;;14.53;;
11008;SDS011;5557;51.670;7.788;2023-05-07T04:10:27;16.10;;;14.50;;
11008;SDS011;5557;51.670;7.788;2023-05-07T04:12:55;19.60;;;14.70;;
11008;SDS011;5557;51.670;7.788;2023-05-07T04:15:23;19.83;;;15.97;;
11008;SDS011;5557;51.670;7.788;2023-05-07T04:17:50;18.50;;;16.53;;
11008;SDS011;5557;51.670;7.788;2023-05-07T04:20:17;17.23;;;15.47;;
11008;SDS011;5557;51.670;7.788;2023-05-07T04:22:44;26.27;;;19.87;;
11008;SDS011;5557;51.670;7.788;2023-05-07T04:25:11;33.40;;;26.67;;
11008;SDS011;5557;51.670;7.788;2023-05-07T04:27:38;27.57;;;22.63;;
11008;SDS011;5557;51.670;7.788;2023-05-07T04:30:06;20.83;;;18.73;;
11008;SDS011;5557;51.670;7.788;2023-05-07T04:32:33;26.23;;;21.20;;
11008;SDS011;5557;51.670;7.788;2023-05-07T04:35:02;63.53;;;42.47;;
11008;SDS011;5557;51.670;7.788;2023-05-07T04:37:31;30.00;;;23.60;;
11008;SDS011;5557;51.670;7.788;2023-05-07T04:39:58;112.33;;;81.73;;
11008;SDS011;5557;51.670;7.788;2023-05-07T04:42:26;121.07;;;90.33;;
11008;SDS011;5557;51.670;7.788;2023-05-07T04:44:53;112.87;;;80.83;;
11008;SDS011;5557;51.670;7.788;2023-05-07T04:47:20;66.30;;;49.80;;
11008;SDS011;5557;51.670;7.788;2023-05-07T04:49:47;44.67;;;34.17;;
11008;SDS011;5557;51.670;7.788;2023-05-07T04:52:14;52.47;;;38.70;;
11008;SDS011;5557;51.670;7.788;2023-05-07T04:54:41;57.60;;;41.60;;
11008;SDS011;5557;51.670;7.788;2023-05-07T04:57:08;57.10;;;40.83;;
11008;SDS011;5557;51.670;7.788;2023-05-07T04:59:35;62.03;;;44.40;;
11008;SDS011;5557;51.670;7.788;2023-05-07T05:02:02;62.93;;;44.30;;
11008;SDS011;5557;51.670;7.788;2023-05-07T05:04:32;55.33;;;42.70;;
11008;SDS011;5557;51.670;7.788;2023-05-07T05:06:59;65.30;;;44.70;;
11008;SDS011;5557;51.670;7.788;2023-05-07T05:09:26;45.63;;;35.43;;
11008;SDS011;5557;51.670;7.788;2023-05-07T05:11:53;34.80;;;25.87;;
11008;SDS011;5557;51.670;7.788;2023-05-07T05:14:20;55.53;;;42.73;;
11008;SDS011;5557;51.670;7.788;2023-05-07T05:16:47;105.77;;;74.93;;
11008;SDS011;5557;51.670;7.788;2023-05-07T05:19:14;126.63;;;90.43;;
11008;SDS011;5557;51.670;7.788;2023-05-07T05:21:41;125.03;;;88.17;;
11008;SDS011;5557;51.670;7.788;2023-05-07T05:24:08;109.80;;;81.87;;
11008;SDS011;5557;51.670;7.788;2023-05-07T05:26:35;75.23;;;52.50;;
11008;SDS011;5557;51.670;7.788;2023-05-07T05:29:02;132.37;;;94.57;;
11008;SDS011;5557;51.670;7.788;2023-05-07T05:31:29;108.17;;;69.87;;
11008;SDS011;5557;51.670;7.788;2023-05-07T05:33:56;61.13;;;40.60;;
11008;SDS011;5557;51.670;7.788;2023-05-07T05:36:23;34.57;;;28.03;;
11008;SDS011;5557;51.670;7.788;2023-05-07T05:38:50;35.07;;;26.43;;
11008;SDS011;5557;51.670;7.788;2023-05-07T05:41:16;27.40;;;22.57;;
11008;SDS011;5557;51.670;7.788;2023-05-07T05:43:43;26.20;;;22.27;;
11008;SDS011;5557;51.670;7.788;2023-05-07T05:46:10;24.67;;;21.43;;
11008;SDS011;5557;51.670;7.788;2023-05-07T05:48:38;33.93;;;25.70;;
11008;SDS011;5557;51.670;7.788;2023-05-07T05:51:05;25.70;;;20.60;;
11008;SDS011;5557;51.670;7.788;2023-05-07T05:53:32;27.20;;;20.87;;
11008;SDS011;5557;51.670;7.788;2023-05-07T05:55:59;30.37;;;20.90;;
11008;SDS011;5557;51.670;7.788;2023-05-07T05:58:26;30.73;;;20.57;;
11008;SDS011;5557;51.670;7.788;2023-05-07T06:00:53;23.50;;;18.90;;
11008;SDS011;5557;51.670;7.788;2023-05-07T06:03:20;22.47;;;17.93;;
11008;SDS011;5557;51.670;7.788;2023-05-07T06:05:48;20.40;;;17.70;;
11008;SDS011;5557;51.670;7.788;2023-05-07T06:08:15;19.83;;;17.57;;
11008;SDS011;5557;51.670;7.788;2023-05-07T06:10:42;27.80;;;19.30;;
11008;SDS011;5557;51.670;7.788;2023-05-07T06:13:09;23.73;;;18.97;;
11008;SDS011;5557;51.670;7.788;2023-05-07T06:15:36;21.17;;;18.83;;
11008;SDS011;5557;51.670;7.788;2023-05-07T06:18:03;26.93;;;21.60;;
11008;SDS011;5557;51.670;7.788;2023-05-07T06:20:30;29.13;;;20.47;;
11008;SDS011;5557;51.670;7.788;2023-05-07T06:22:57;31.33;;;23.00;;
11008;SDS011;5557;51.670;7.788;2023-05-07T06:25:23;21.57;;;19.00;;
11008;SDS011;5557;51.670;7.788;2023-05-07T06:27:50;41.97;;;31.03;;
11008;SDS011;5557;51.670;7.788;2023-05-07T06:30:17;54.13;;;31.17;;
11008;SDS011;5557;51.670;7.788;2023-05-07T06:32:44;30.53;;;22.87;;
11008;SDS011;5557;51.670;7.788;2023-05-07T06:35:12;50.90;;;40.97;;
11008;SDS011;5557;51.670;7.788;2023-05-07T06:37:38;31.57;;;20.87;;
11008;SDS011;5557;51.670;7.788;2023-05-07T06:40:09;25.40;;;20.40;;
11008;SDS011;5557;51.670;7.788;2023-05-07T06:42:37;46.43;;;36.77;;
11008;SDS011;5557;51.670;7.788;2023-05-07T06:45:04;56.20;;;41.57;;
11008;SDS011;5557;51.670;7.788;2023-05-07T06:47:31;39.70;;;31.67;;
11008;SDS011;5557;51.670;7.788;2023-05-07T06:49:58;31.33;;;23.20;;
11008;SDS011;5557;51.670;7.788;2023-05-07T06:52:25;27.33;;;21.93;;
11008;SDS011;5557;51.670;7.788;2023-05-07T06:54:52;54.13;;;39.70;;
11008;SDS011;5557;51.670;7.788;2023-05-07T06:57:19;57.57;;;46.63;;
11008;SDS011;5557;51.670;7.788;2023-05-07T06:59:46;37.30;;;28.30;;
11008;SDS011;5557;51.670;7.788;2023-05-07T07:02:13;61.20;;;44.37;;
11008;SDS011;5557;51.670;7.788;2023-05-07T07:04:43;31.80;;;25.13;;
11008;SDS011;5557;51.670;7.788;2023-05-07T07:07:11;37.73;;;28.50;;
11008;SDS011;5557;51.670;7.788;2023-05-07T07:09:38;35.93;;;25.13;;
11008;SDS011;5557;51.670;7.788;2023-05-07T07:12:05;65.33;;;45.23;;
11008;SDS011;5557;51.670;7.788;2023-05-07T07:14:32;49.93;;;40.57;;
11008;SDS011;5557;51.670;7.788;2023-05-07T07:16:59;33.63;;;25.47;;
11008;SDS011;5557;51.670;7.788;2023-05-07T07:19:26;24.13;;;19.60;;
11008;SDS011;5557;51.670;7.788;2023-05-07T07:21:53;64.03;;;50.93;;
11008;SDS011;5557;51.670;7.788;2023-05-07T07:24:20;31.17;;;24.50;;
11008;SDS011;5557;51.670;7.788;2023-05-07T07:26:47;30.20;;;22.40;;
11008;SDS011;5557;51.670;7.788;2023-05-07T07:29:14;25.23;;;19.20;;
11008;SDS011;5557;51.670;7.788;2023-05-07T07:31:41;25.07;;;17.63;;
11008;SDS011;5557;51.670;7.788;2023-05-07T07:34:08;24.43;;;20.17;;
11008;SDS011;5557;51.670;7.788;2023-05-07T07:36:35;33.10;;;24.97;;
11008;SDS011;5557;51.670;7.788;2023-05-07T07:39:12;37.03;;;31.37;;
11008;SDS011;5557;51.670;7.788;2023-05-07T07:41:39;47.20;;;38.80;;
11008;SDS011;5557;51.670;7.788;2023-05-07T07:44:06;49.60;;;33.20;;
11008;SDS011;5557;51.670;7.788;2023-05-07T07:46:33;48.13;;;37.27;;
11008;SDS011;5557;51.670;7.788;2023-05-07T07:49:01;53.47;;;43.07;;
11008;SDS011;5557;51.670;7.788;2023-05-07T07:51:28;55.23;;;42.87;;
11008;SDS011;5557;51.670;7.788;2023-05-07T07:53:55;42.43;;;30.60;;
11008;SDS011;5557;51.670;7.788;2023-05-07T07:56:24;39.20;;;29.87;;
11008;SDS011;5557;51.670;7.788;2023-05-07T07:58:51;43.00;;;34.43;;
11008;SDS011;5557;51.670;7.788;2023-05-07T08:01:18;28.30;;;23.93;;
11008;SDS011;5557;51.670;7.788;2023-05-07T08:03:45;20.50;;;17.77;;
11008;SDS011;5557;51.670;7.788;2023-05-07T08:06:12;22.60;;;15.90;;
11008;SDS011;5557;51.670;7.788;2023-05-07T08:08:40;19.83;;;17.03;;
11008;SDS011;5557;51.670;7.788;2023-05-07T08:11:07;22.37;;;17.10;;
11008;SDS011;5557;51.670;7.788;2023-05-07T08:13:34;17.90;;;15.20;;
11008;SDS011;5557;51.670;7.788;2023-05-07T08:16:01;26.60;;;16.90;;
11008;SDS011;5557;51.670;7.788;2023-05-07T08:18:28;24.40;;;15.93;;
11008;SDS011;5557;51.670;7.788;2023-05-07T08:20:55;18.90;;;16.33;;
11008;SDS011;5557;51.670;7.788;2023-05-07T08:23:22;22.57;;;16.90;;
11008;SDS011;5557;51.670;7.788;2023-05-07T08:25:49;40.30;;;32.40;;
11008;SDS011;5557;51.670;7.788;2023-05-07T08:28:17;22.53;;;17.10;;
11008;SDS011;5557;51.670;7.788;2023-05-07T08:30:45;23.43;;;17.50;;
11008;SDS011;5557;51.670;7.788;2023-05-07T08:33:12;19.73;;;16.07;;
11008;SDS011;5557;51.670;7.788;2023-05-07T08:35:39;25.53;;;17.30;;
11008;SDS011;5557;51.670;7.788;2023-05-07T08:38:06;25.03;;;17.87;;
11008;SDS011;5557;51.670;7.788;2023-05-07T08:40:36;20.37;;;16.80;;
11008;SDS011;5557;51.670;7.788;2023-05-07T08:43:07;24.17;;;19.47;;
11008;SDS011;5557;51.670;7.788;2023-05-07T08:45:34;19.53;;;16.20;;
11008;SDS011;5557;51.670;7.788;2023-05-07T08:48:02;19.30;;;15.50;;
11008;SDS011;5557;51.670;7.788;2023-05-07T08:50:35;20.97;;;15.50;;
11008;SDS011;5557;51.670;7.788;2023-05-07T08:53:03;24.20;;;16.67;;
11008;SDS011;5557;51.670;7.788;2023-05-07T08:55:31;26.40;;;19.73;;
11008;SDS011;5557;51.670;7.788;2023-05-07T08:57:59;26.00;;;20.87;;
11008;SDS011;5557;51.670;7.788;2023-05-07T09:00:27;24.80;;;20.80;;
11008;SDS011;5557;51.670;7.788;2023-05-07T09:02:54;35.83;;;28.67;;
11008;SDS011;5557;51.670;7.788;2023-05-07T09:05:21;24.40;;;17.90;;
11008;SDS011;5557;51.670;7.788;2023-05-07T09:07:48;21.80;;;16.20;;
11008;SDS011;5557;51.670;7.788;2023-05-07T09:10:20;19.10;;;15.87;;
11008;SDS011;5557;51.670;7.788;2023-05-07T09:12:47;20.37;;;16.30;;
11008;SDS011;5557;51.670;7.788;2023-05-07T09:15:14;21.63;;;15.50;;
11008;SDS011;5557;51.670;7.788;2023-05-07T09:17:42;29.03;;;19.43;;
11008;SDS011;5557;51.670;7.788;2023-05-07T09:20:09;17.80;;;15.93;;
11008;SDS011;5557;51.670;7.788;2023-05-07T09:22:37;21.23;;;17.30;;
11008;SDS011;5557;51.670;7.788;2023-05-07T09:25:05;18.10;;;14.73;;
11008;SDS011;5557;51.670;7.788;2023-05-07T09:27:33;17.20;;;15.20;;
11008;SDS011;5557;51.670;7.788;2023-05-07T09:30:09;19.10;;;15.40;;
11008;SDS011;5557;51.670;7.788;2023-05-07T09:32:37;18.73;;;16.83;;
11008;SDS011;5557;51.670;7.788;2023-05-07T09:35:04;19.17;;;12.60;;
11008;SDS011;5557;51.670;7.788;2023-05-07T09:37:32;20.20;;;15.67;;
11008;SDS011;5557;51.670;7.788;2023-05-07T09:39:59;15.37;;;13.87;;
11008;SDS011;5557;51.670;7.788;2023-05-07T09:42:26;17.37;;;14.77;;
11008;SDS011;5557;51.670;7.788;2023-05-07T09:44:53;16.77;;;14.93;;
11008;SDS011;5557;51.670;7.788;2023-05-07T09:47:20;20.30;;;15.00;;
11008;SDS011;5557;51.670;7.788;2023-05-07T09:49:51;19.30;;;15.50;;
11008;SDS011;5557;51.670;7.788;2023-05-07T09:52:23;29.00;;;15.83;;
11008;SDS011;5557;51.670;7.788;2023-05-07T09:54:54;19.70;;;15.93;;
11008;SDS011;5557;51.670;7.788;2023-05-07T09:57:26;15.77;;;13.90;;
11008;SDS011;5557;51.670;7.788;2023-05-07T09:59:54;18.10;;;13.50;;
11008;SDS011;5557;51.670;7.788;2023-05-07T10:02:23;15.87;;;12.87;;
11008;SDS011;5557;51.670;7.788;2023-05-07T10:04:52;20.63;;;13.60;;
11008;SDS011;5557;51.670;7.788;2023-05-07T10:07:20;20.23;;;14.53;;
11008;SDS011;5557;51.670;7.788;2023-05-07T10:09:49;16.20;;;13.13;;
11008;SDS011;5557;51.670;7.788;2023-05-07T10:12:16;14.53;;;13.03;;
11008;SDS011;5557;51.670;7.788;2023-05-07T10:14:45;16.00;;;13.00;;
11008;SDS011;5557;51.670;7.788;2023-05-07T10:17:12;13.53;;;12.23;;
11008;SDS011;5557;51.670;7.788;2023-05-07T10:19:43;14.07;;;12.67;;
11008;SDS011;5557;51.670;7.788;2023-05-07T10:22:11;16.20;;;13.93;;
11008;SDS011;5557;51.670;7.788;2023-05-07T10:24:40;19.83;;;12.80;;
11008;SDS011;5557;51.670;7.788;2023-05-07T10:27:09;15.80;;;12.30;;
11008;SDS011;5557;51.670;7.788;2023-05-07T10:29:58;13.57;;;12.17;;
11008;SDS011;5557;51.670;7.788;2023-05-07T10:33:06;13.97;;;11.67;;
11008;SDS011;5557;51.670;7.788;2023-05-07T10:35:44;15.70;;;11.97;;
11008;SDS011;5557;51.670;7.788;2023-05-07T10:38:13;20.23;;;11.97;;
11008;SDS011;5557;51.670;7.788;2023-05-07T10:40:40;15.20;;;12.20;;
11008;SDS011;5557;51.670;7.788;2023-05-07T10:43:07;16.00;;;11.07;;
11008;SDS011;5557;51.670;7.788;2023-05-07T10:45:36;11.10;;;10.10;;
11008;SDS011;5557;51.670;7.788;2023-05-07T10:48:15;19.43;;;11.90;;
11008;SDS011;5557;51.670;7.788;2023-05-07T10:56:57;16.97;;;15.17;;
11008;SDS011;5557;51.670;7.788;2023-05-07T11:00:03;10.40;;;8.97;;
11008;SDS011;5557;51.670;7.788;2023-05-07T11:03:08;11.83;;;10.60;;
11008;SDS011;5557;51.670;7.788;2023-05-07T11:05:35;11.10;;;10.10;;
11008;SDS011;5557;51.670;7.788;2023-05-07T11:08:04;10.60;;;9.50;;
11008;SDS011;5557;51.670;7.788;2023-05-07T11:10:47;10.80;;;9.80;;
11008;SDS011;5557;51.670;7.788;2023-05-07T11:13:14;11.67;;;10.13;;
11008;SDS011;5557;51.670;7.788;2023-05-07T11:15:43;9.87;;;8.33;;
11008;SDS011;5557;51.670;7.788;2023-05-07T11:18:13;7.47;;;6.90;;
11008;SDS011;5557;51.670;7.788;2023-05-07T11:20:51;8.40;;;7.70;;
11008;SDS011;5557;51.670;7.788;2023-05-07T11:26:21;10.17;;;9.17;;
11008;SDS011;5557;51.670;7.788;2023-05-07T11:28:48;8.10;;;7.30;;
11008;SDS011;5557;51.670;7.788;2023-05-07T11:31:20;11.10;;;9.10;;
11008;SDS011;5557;51.670;7.788;2023-05-07T11:33:48;9.00;;;8.10;;
11008;SDS011;5557;51.670;7.788;2023-05-07T11:36:16;6.33;;;5.90;;
11008;SDS011;5557;51.670;7.788;2023-05-07T11:38:45;7.27;;;6.73;;
11008;SDS011;5557;51.670;7.788;2023-05-07T11:41:12;7.60;;;7.03;;
11008;SDS011;5557;51.670;7.788;2023-05-07T11:43:53;7.47;;;6.97;;
11008;SDS011;5557;51.670;7.788;2023-05-07T11:46:22;10.93;;;9.80;;
11008;SDS011;5557;51.670;7.788;2023-05-07T11:48:49;10.20;;;9.20;;
11008;SDS011;5557;51.670;7.788;2023-05-07T11:51:23;10.63;;;8.63;;
11008;SDS011;5557;51.670;7.788;2023-05-07T11:53:52;9.10;;;8.20;;
11008;SDS011;5557;51.670;7.788;2023-05-07T11:56:19;8.67;;;6.60;;
11008;SDS011;5557;51.670;7.788;2023-05-07T11:58:47;10.10;;;9.10;;
11008;SDS011;5557;51.670;7.788;2023-05-07T12:01:14;12.20;;;9.87;;
11008;SDS011;5557;51.670;7.788;2023-05-07T12:03:44;9.43;;;8.63;;
11008;SDS011;5557;51.670;7.788;2023-05-07T12:06:13;7.70;;;7.20;;
11008;SDS011;5557;51.670;7.788;2023-05-07T12:08:42;9.60;;;8.60;;
11008;SDS011;5557;51.670;7.788;2023-05-07T12:11:14;11.63;;;10.10;;
11008;SDS011;5557;51.670;7.788;2023-05-07T12:13:51;9.13;;;8.30;;
11008;SDS011;5557;51.670;7.788;2023-05-07T12:16:24;10.57;;;8.83;;
11008;SDS011;5557;51.670;7.788;2023-05-07T12:18:52;9.10;;;8.33;;
11008;SDS011;5557;51.670;7.788;2023-05-07T12:21:21;9.17;;;8.27;;
11008;SDS011;5557;51.670;7.788;2023-05-07T12:23:49;10.13;;;7.80;;
11008;SDS011;5557;51.670;7.788;2023-05-07T12:26:16;8.77;;;7.87;;
11008;SDS011;5557;51.670;7.788;2023-05-07T12:28:45;9.53;;;8.63;;
11008;SDS011;5557;51.670;7.788;2023-05-07T12:31:13;10.17;;;8.83;;
11008;SDS011;5557;51.670;7.788;2023-05-07T12:33:41;9.13;;;8.07;;
11008;SDS011;5557;51.670;7.788;2023-05-07T12:36:08;10.07;;;7.73;;
11008;SDS011;5557;51.670;7.788;2023-05-07T12:38:38;10.13;;;8.37;;
11008;SDS011;5557;51.670;7.788;2023-05-07T12:41:07;9.00;;;8.10;;
11008;SDS011;5557;51.670;7.788;2023-05-07T12:43:36;9.03;;;8.17;;
11008;SDS011;5557;51.670;7.788;2023-05-07T12:46:04;9.17;;;8.27;;
11008;SDS011;5557;51.670;7.788;2023-05-07T12:48:32;8.20;;;7.50;;
11008;SDS011;5557;51.670;7.788;2023-05-07T12:51:00;9.03;;;8.17;;
11008;SDS011;5557;51.670;7.788;2023-05-07T12:53:28;8.43;;;7.73;;
11008;SDS011;5557;51.670;7.788;2023-05-07T12:55:57;8.70;;;7.70;;
11008;SDS011;5557;51.670;7.788;2023-05-07T12:58:26;9.30;;;8.33;;
11008;SDS011;5557;51.670;7.788;2023-05-07T13:00:58;8.97;;;8.07;;
11008;SDS011;5557;51.670;7.788;2023-05-07T13:03:30;18.27;;;8.17;;
11008;SDS011;5557;51.670;7.788;2023-05-07T13:05:59;8.27;;;7.07;;
11008;SDS011;5557;51.670;7.788;2023-05-07T13:08:34;7.93;;;7.13;;
11008;SDS011;5557;51.670;7.788;2023-05-07T13:11:11;7.80;;;7.20;;
11008;SDS011;5557;51.670;7.788;2023-05-07T13:13:39;8.23;;;7.63;;
11008;SDS011;5557;51.670;7.788;2023-05-07T13:16:08;9.50;;;8.60;;
11008;SDS011;5557;51.670;7.788;2023-05-07T13:18:37;8.43;;;7.73;;
11008;SDS011;5557;51.670;7.788;2023-05-07T13:21:05;8.00;;;7.30;;
11008;SDS011;5557;51.670;7.788;2023-05-07T13:23:32;8.37;;;7.67;;
11008;SDS011;5557;51.670;7.788;2023-05-07T13:25:59;7.63;;;6.93;;
11008;SDS011;5557;51.670;7.788;2023-05-07T13:28:31;8.53;;;7.83;;
11008;SDS011;5557;51.670;7.788;2023-05-07T13:30:58;8.57;;;7.87;;
11008;SDS011;5557;51.670;7.788;2023-05-07T13:33:25;8.77;;;8.00;;
11008;SDS011;5557;51.670;7.788;2023-05-07T13:35:52;8.10;;;7.50;;
11008;SDS011;5557;51.670;7.788;2023-05-07T13:38:19;8.03;;;7.33;;
11008;SDS011;5557;51.670;7.788;2023-05-07T13:40:48;7.10;;;6.47;;
11008;SDS011;5557;51.670;7.788;2023-05-07T13:43:15;8.30;;;7.60;;
11008;SDS011;5557;51.670;7.788;2023-05-07T13:45:43;7.57;;;6.83;;
11008;SDS011;5557;51.670;7.788;2023-05-07T13:48:10;7.40;;;6.90;;
11008;SDS011;5557;51.670;7.788;2023-05-07T13:50:37;7.90;;;7.20;;
11008;SDS011;5557;51.670;7.788;2023-05-07T13:53:04;8.30;;;7.60;;
11008;SDS011;5557;51.670;7.788;2023-05-07T13:55:31;8.03;;;7.23;;
11008;SDS011;5557;51.670;7.788;2023-05-07T13:57:59;7.20;;;6.63;;
11008;SDS011;5557;51.670;7.788;2023-05-07T14:00:27;7.97;;;7.37;;
11008;SDS011;5557;51.670;7.788;2023-05-07T14:02:55;7.47;;;6.87;;
11008;SDS011;5557;51.670;7.788;2023-05-07T14:05:23;9.33;;;7.10;;
11008;SDS011;5557;51.670;7.788;2023-05-07T14:07:51;8.20;;;7.40;;
11008;SDS011;5557;51.670;7.788;2023-05-07T14:10:18;8.23;;;7.43;;
11008;SDS011;5557;51.670;7.788;2023-05-07T14:12:46;10.00;;;8.47;;
11008;SDS011;5557;51.670;7.788;2023-05-07T14:15:13;8.37;;;7.63;;
11008;SDS011;5557;51.670;7.788;2023-05-07T14:17:42;8.27;;;7.57;;
11008;SDS011;5557;51.670;7.788;2023-05-07T14:20:10;10.70;;;9.00;;
11008;SDS011;5557;51.670;7.788;2023-05-07T14:22:38;9.07;;;8.27;;
11008;SDS011;5557;51.670;7.788;2023-05-07T14:25:05;7.47;;;6.63;;
11008;SDS011;5557;51.670;7.788;2023-05-07T14:27:33;10.53;;;8.40;;
11008;SDS011;5557;51.670;7.788;2023-05-07T14:30:00;11.93;;;10.60;;
11008;SDS011;5557;51.670;7.788;2023-05-07T14:32:27;9.67;;;8.67;;
11008;SDS011;5557;51.670;7.788;2023-05-07T14:34:54;20.57;;;12.57;;
11008;SDS011;5557;51.670;7.788;2023-05-07T14:37:21;13.57;;;11.13;;
11008;SDS011;5557;51.670;7.788;2023-05-07T14:39:48;14.93;;;8.80;;
11008;SDS011;5557;51.670;7.788;2023-05-07T14:42:16;10.10;;;9.00;;
11008;SDS011;5557;51.670;7.788;2023-05-07T14:44:43;7.60;;;7.00;;
11008;SDS011;5557;51.670;7.788;2023-05-07T14:47:12;8.57;;;7.80;;
11008;SDS011;5557;51.670;7.788;2023-05-07T14:49:39;8.43;;;7.63;;
11008;SDS011;5557;51.670;7.788;2023-05-07T14:52:07;8.33;;;7.63;;
11008;SDS011;5557;51.670;7.788;2023-05-07T14:54:36;10.50;;;9.60;;
11008;SDS011;5557;51.670;7.788;2023-05-07T14:57:05;8.93;;;8.13;;
11008;SDS011;5557;51.670;7.788;2023-05-07T14:59:32;9.27;;;8.47;;